createdAt,value
2017-08-07T00:01:05.728Z,2.17
2017-08-07T00:03:39.474Z,2.12
2017-08-07T00:06:13.676Z,2.20
2017-08-07T00:08:48.448Z,2.83
2017-08-07T00:11:22.529Z,2.30
2017-08-07T00:13:56.652Z,2.05
2017-08-07T00:16:31.448Z,1.90
2017-08-07T00:19:06.256Z,1.70
2017-08-07T00:21:40.805Z,1.98
2017-08-07T00:24:15.128Z,2.17
2017-08-07T00:26:49.112Z,1.45
2017-08-07T00:29:23.877Z,1.60
2017-08-07T00:31:57.992Z,1.80
2017-08-07T00:34:32.407Z,1.60
2017-08-07T00:37:06.326Z,1.75
2017-08-07T00:39:40.241Z,1.50
2017-08-07T00:42:14.130Z,1.90
2017-08-07T00:44:48.231Z,2.20
2017-08-07T00:47:22.975Z,2.60
2017-08-07T00:49:57.020Z,2.60
2017-08-07T00:52:31.113Z,1.87
2017-08-07T00:55:05.787Z,2.05
2017-08-07T00:57:40.506Z,2.65
2017-08-07T01:00:14.407Z,3.10
2017-08-07T01:02:49.076Z,1.95
2017-08-07T01:05:22.932Z,1.70
2017-08-07T01:07:57.030Z,1.42
2017-08-07T01:10:30.895Z,1.60
2017-08-07T01:13:05.093Z,1.50
2017-08-07T01:15:38.965Z,1.77
2017-08-07T01:18:13.421Z,1.40
2017-08-07T01:20:48.101Z,1.37
2017-08-07T01:23:23.018Z,1.20
2017-08-07T01:25:57.017Z,1.52
2017-08-07T01:28:31.039Z,1.48
2017-08-07T01:31:05.047Z,1.83
2017-08-07T01:33:39.157Z,1.70
2017-08-07T01:36:12.876Z,2.30
2017-08-07T01:38:47.511Z,1.80
2017-08-07T01:41:21.458Z,1.45
2017-08-07T01:43:55.396Z,2.00
2017-08-07T01:46:30.075Z,1.65
2017-08-07T01:49:03.957Z,1.40
2017-08-07T01:51:37.971Z,1.70
2017-08-07T01:54:11.752Z,1.60
2017-08-07T01:56:45.510Z,2.03
2017-08-07T01:59:19.328Z,2.20
2017-08-07T02:01:53.381Z,2.20
2017-08-07T02:04:27.314Z,1.90
2017-08-07T02:07:01.165Z,2.55
2017-08-07T02:09:35.156Z,1.87
2017-08-07T02:12:09.771Z,2.72
2017-08-07T02:14:43.701Z,1.90
2017-08-07T02:17:18.231Z,2.87
2017-08-07T02:19:52.054Z,2.10
2017-08-07T02:22:26.028Z,1.90
2017-08-07T02:25:00.807Z,1.70
2017-08-07T02:27:35.286Z,2.30
2017-08-07T02:30:09.828Z,2.35
2017-08-07T02:32:43.545Z,1.70
2017-08-07T02:35:18.414Z,1.52
2017-08-07T02:37:53.200Z,2.28
2017-08-07T02:40:27.923Z,3.87
2017-08-07T02:43:01.773Z,1.45
2017-08-07T02:45:35.802Z,2.60
2017-08-07T02:48:09.717Z,1.70
2017-08-07T02:50:43.598Z,2.00
2017-08-07T02:53:17.643Z,1.45
2017-08-07T02:55:53.852Z,2.20
2017-08-07T02:58:28.588Z,1.40
2017-08-07T03:01:02.507Z,2.10
2017-08-07T03:03:36.272Z,1.55
2017-08-07T03:06:10.331Z,1.50
2017-08-07T03:08:44.485Z,1.40
2017-08-07T03:11:19.396Z,1.85
2017-08-07T03:13:53.718Z,1.70
2017-08-07T03:16:27.827Z,2.33
2017-08-07T03:19:11.654Z,1.40
2017-08-07T03:21:45.826Z,1.77
2017-08-07T03:24:20.494Z,2.10
2017-08-07T03:26:54.205Z,2.10
2017-08-07T03:29:28.829Z,2.17
2017-08-07T03:32:02.535Z,1.75
2017-08-07T03:34:36.356Z,1.75
2017-08-07T03:37:10.099Z,2.20
2017-08-07T03:39:43.958Z,2.30
2017-08-07T03:42:18.586Z,2.35
2017-08-07T03:44:52.537Z,1.98
2017-08-07T03:47:26.469Z,1.90
2017-08-07T03:50:00.339Z,1.67
2017-08-07T03:52:34.113Z,2.00
2017-08-07T03:55:07.922Z,1.98
2017-08-07T03:57:41.656Z,2.20
2017-08-07T04:00:15.604Z,1.65
2017-08-07T04:02:49.888Z,2.00
2017-08-07T04:05:23.863Z,2.30
2017-08-07T04:07:57.955Z,2.20
2017-08-07T04:10:32.954Z,2.28
2017-08-07T04:13:07.098Z,2.00
2017-08-07T04:15:40.864Z,2.20
2017-08-07T04:18:15.325Z,2.55
2017-08-07T04:20:49.993Z,2.10
2017-08-07T04:23:25.276Z,2.10
2017-08-07T04:25:59.015Z,2.20
2017-08-07T04:28:32.806Z,2.85
2017-08-07T04:31:06.925Z,1.92
2017-08-07T04:33:40.984Z,1.67
2017-08-07T04:36:14.806Z,2.15
2017-08-07T04:38:49.704Z,1.48
2017-08-07T04:41:23.789Z,1.70
2017-08-07T04:43:58.442Z,1.58
2017-08-07T04:46:32.928Z,2.08
2017-08-07T04:49:07.514Z,2.53
2017-08-07T04:51:42.437Z,1.70
2017-08-07T04:54:16.449Z,1.70
2017-08-07T04:56:51.224Z,1.70
2017-08-07T04:59:26.086Z,1.80
2017-08-07T05:02:02.565Z,2.65
2017-08-07T05:04:37.528Z,2.40
2017-08-07T05:07:11.523Z,2.12
2017-08-07T05:09:46.213Z,2.08
2017-08-07T05:12:23.617Z,2.97
2017-08-07T05:15:03.521Z,2.70
2017-08-07T05:17:38.971Z,3.20
2017-08-07T05:20:16.301Z,2.40
2017-08-07T05:22:54.290Z,2.50
2017-08-07T05:25:29.391Z,2.05
2017-08-07T05:28:03.203Z,1.87
2017-08-07T05:30:37.090Z,2.95
2017-08-07T05:33:10.950Z,1.92
2017-08-07T05:35:44.722Z,2.30
2017-08-07T05:38:20.889Z,2.42
2017-08-07T05:40:58.167Z,2.22
2017-08-07T05:43:35.888Z,1.70
2017-08-07T05:46:13.013Z,1.85
2017-08-07T05:48:47.923Z,2.30
2017-08-07T05:51:21.933Z,2.75
2017-08-07T05:53:56.629Z,2.85
2017-08-07T05:56:31.329Z,2.70
2017-08-07T05:59:05.066Z,2.83
2017-08-07T06:01:38.861Z,2.72
2017-08-07T06:04:12.991Z,3.03
2017-08-07T06:06:48.960Z,2.60
2017-08-07T06:09:22.930Z,2.35
2017-08-07T06:11:57.895Z,2.60
2017-08-07T06:14:31.853Z,2.30
2017-08-07T06:17:05.784Z,3.20
2017-08-07T06:19:39.815Z,2.67
2017-08-07T06:22:13.790Z,2.80
2017-08-07T06:24:47.750Z,3.42
2017-08-07T06:27:23.029Z,3.45
2017-08-07T06:29:56.947Z,2.70
2017-08-07T06:32:31.819Z,2.62
2017-08-07T06:35:05.730Z,2.35
2017-08-07T06:37:40.388Z,2.87
2017-08-07T06:40:20.040Z,2.45
2017-08-07T06:42:53.988Z,2.83
2017-08-07T06:45:28.555Z,2.15
2017-08-07T06:48:02.403Z,2.65
2017-08-07T06:50:36.195Z,2.05
2017-08-07T06:53:12.050Z,1.85
2017-08-07T06:55:46.028Z,2.25
2017-08-07T06:58:20.363Z,2.40
2017-08-07T07:00:54.371Z,2.03
2017-08-07T07:03:28.238Z,1.70
2017-08-07T07:06:02.365Z,2.25
2017-08-07T07:08:36.550Z,1.80
2017-08-07T07:11:10.401Z,2.50
2017-08-07T07:13:44.258Z,2.12
2017-08-07T07:16:17.983Z,2.50
2017-08-07T07:18:52.210Z,1.92
2017-08-07T07:21:26.986Z,2.30
2017-08-07T07:24:00.849Z,2.42
2017-08-07T07:26:35.589Z,2.30
2017-08-07T07:29:09.751Z,2.15
2017-08-07T07:31:44.474Z,2.45
2017-08-07T07:34:19.087Z,2.62
2017-08-07T07:36:54.069Z,2.12
2017-08-07T07:39:28.976Z,2.65
2017-08-07T07:42:02.946Z,2.62
2017-08-07T07:44:36.783Z,2.10
2017-08-07T07:47:10.628Z,2.28
2017-08-07T07:49:44.373Z,2.60
2017-08-07T07:52:18.968Z,2.35
2017-08-07T07:54:53.531Z,2.35
2017-08-07T07:57:27.427Z,2.22
2017-08-07T08:00:02.133Z,2.50
2017-08-07T08:02:35.754Z,2.55
2017-08-07T08:05:09.637Z,2.10
2017-08-07T08:07:43.616Z,2.05
2017-08-07T08:10:17.800Z,2.15
2017-08-07T08:12:51.787Z,2.50
2017-08-07T08:15:25.534Z,2.40
2017-08-07T08:17:59.437Z,2.15
2017-08-07T08:20:33.442Z,2.00
2017-08-07T08:23:08.151Z,2.30
2017-08-07T08:25:42.019Z,2.20
2017-08-07T08:28:16.317Z,1.95
2017-08-07T08:30:51.341Z,2.33
2017-08-07T08:33:25.338Z,2.60
2017-08-07T08:35:59.510Z,2.50
2017-08-07T08:38:33.919Z,2.03
2017-08-07T08:41:07.771Z,2.35
2017-08-07T08:43:41.816Z,1.92
2017-08-07T08:46:15.572Z,2.17
2017-08-07T08:48:49.448Z,2.00
2017-08-07T08:51:23.171Z,1.98
2017-08-07T08:53:57.036Z,1.90
2017-08-07T08:56:32.458Z,2.10
2017-08-07T08:59:07.052Z,2.62
2017-08-07T09:01:41.741Z,2.05
2017-08-07T09:04:15.650Z,1.83
2017-08-07T09:06:50.356Z,2.10
2017-08-07T09:09:24.890Z,2.20
2017-08-07T09:11:59.953Z,2.80
2017-08-07T09:14:34.178Z,2.10
2017-08-07T09:17:08.933Z,2.42
2017-08-07T09:19:42.749Z,1.80
2017-08-07T09:22:16.709Z,2.20
2017-08-07T09:24:50.426Z,2.12
2017-08-07T09:27:24.180Z,2.30
2017-08-07T09:29:59.397Z,1.80
2017-08-07T09:32:33.259Z,3.05
2017-08-07T09:35:07.964Z,2.80
2017-08-07T09:37:43.209Z,2.42
2017-08-07T09:40:17.213Z,2.70
2017-08-07T09:42:51.931Z,3.30
2017-08-07T09:45:28.372Z,2.25
2017-08-07T09:48:02.290Z,2.25
2017-08-07T09:50:36.894Z,2.53
2017-08-07T09:53:11.652Z,2.62
2017-08-07T09:55:45.789Z,2.20
2017-08-07T09:58:20.532Z,2.12
2017-08-07T10:00:54.872Z,2.33
2017-08-07T10:03:30.433Z,2.20
2017-08-07T10:06:05.297Z,1.70
2017-08-07T10:08:39.560Z,2.15
2017-08-07T10:11:14.510Z,2.40
2017-08-07T10:13:48.469Z,2.87
2017-08-07T10:16:22.054Z,2.15
2017-08-07T10:18:56.080Z,2.72
2017-08-07T10:21:29.663Z,2.50
2017-08-07T10:24:03.668Z,2.70
2017-08-07T10:26:37.430Z,3.30
2017-08-07T10:29:11.287Z,2.53
2017-08-07T10:31:45.335Z,2.05
2017-08-07T10:34:19.416Z,2.10
2017-08-07T10:36:53.524Z,2.60
2017-08-07T10:39:27.771Z,2.80
2017-08-07T10:42:02.799Z,2.60
2017-08-07T10:44:37.574Z,2.30
2017-08-07T10:47:13.514Z,2.40
2017-08-07T10:49:48.281Z,2.80
2017-08-07T10:52:23.811Z,2.30
2017-08-07T10:54:57.817Z,1.90
2017-08-07T10:57:31.833Z,2.40
2017-08-07T11:00:06.692Z,2.55
2017-08-07T11:02:41.989Z,2.37
2017-08-07T11:05:16.970Z,2.58
2017-08-07T11:07:50.999Z,2.67
2017-08-07T11:10:24.965Z,1.83
2017-08-07T11:12:59.209Z,1.87
2017-08-07T11:15:33.384Z,2.20
2017-08-07T11:18:08.475Z,2.62
2017-08-07T11:20:42.461Z,2.17
2017-08-07T11:23:17.209Z,2.10
2017-08-07T11:25:51.200Z,1.87
2017-08-07T11:28:25.962Z,2.33
2017-08-07T11:31:00.611Z,2.25
2017-08-07T11:33:34.586Z,2.40
2017-08-07T11:36:09.355Z,2.35
2017-08-07T11:38:43.325Z,2.90
2017-08-07T11:41:17.519Z,2.20
2017-08-07T11:43:52.300Z,2.50
2017-08-07T11:46:26.236Z,2.25
2017-08-07T11:49:02.027Z,2.28
2017-08-07T11:51:35.699Z,1.92
2017-08-07T11:54:11.382Z,2.97
2017-08-07T11:56:45.223Z,2.05
2017-08-07T11:59:19.002Z,2.10
2017-08-07T12:01:53.096Z,2.40
2017-08-07T12:04:28.170Z,2.20
2017-08-07T12:07:02.049Z,2.62
2017-08-07T12:09:36.154Z,2.25
2017-08-07T12:12:10.508Z,2.45
2017-08-07T12:14:44.752Z,1.90
2017-08-07T12:17:18.771Z,1.98
2017-08-07T12:19:52.790Z,2.80
2017-08-07T12:22:27.149Z,2.22
2017-08-07T12:25:01.415Z,2.20
2017-08-07T12:27:35.980Z,2.30
2017-08-07T12:30:11.431Z,2.45
2017-08-07T12:32:46.193Z,2.75
2017-08-07T12:35:20.746Z,2.70
2017-08-07T12:37:56.318Z,2.08
2017-08-07T12:40:30.381Z,2.42
2017-08-07T12:43:05.534Z,1.85
2017-08-07T12:45:40.522Z,2.35
2017-08-07T12:48:14.998Z,2.40
2017-08-07T12:50:49.195Z,2.20
2017-08-07T12:53:23.116Z,2.20
2017-08-07T12:55:56.958Z,2.10
2017-08-07T12:58:31.834Z,2.00
2017-08-07T13:01:05.946Z,2.42
2017-08-07T13:03:41.942Z,2.10
2017-08-07T13:06:15.656Z,2.37
2017-08-07T13:08:49.819Z,2.53
2017-08-07T13:11:24.638Z,2.50
2017-08-07T13:13:58.774Z,2.53
2017-08-07T13:16:32.700Z,2.40
2017-08-07T13:19:06.719Z,2.70
2017-08-07T13:21:40.909Z,2.90
2017-08-07T13:24:15.449Z,2.37
2017-08-07T13:26:50.467Z,2.50
2017-08-07T13:29:24.238Z,3.12
2017-08-07T13:31:59.154Z,2.95
2017-08-07T13:34:33.326Z,2.53
2017-08-07T13:37:07.546Z,3.00
2017-08-07T13:39:41.484Z,2.58
2017-08-07T13:42:15.953Z,3.80
2017-08-07T13:44:50.087Z,3.37
2017-08-07T13:47:24.053Z,4.07
2017-08-07T13:49:58.020Z,3.22
2017-08-07T13:52:33.888Z,3.20
2017-08-07T13:55:07.659Z,2.60
2017-08-07T13:57:42.699Z,3.28
2017-08-07T14:00:16.635Z,3.62
2017-08-07T14:02:51.574Z,3.12
2017-08-07T14:05:27.825Z,3.35
2017-08-07T14:08:01.421Z,3.10
2017-08-07T14:10:36.251Z,3.65
2017-08-07T14:13:10.394Z,2.75
2017-08-07T14:15:44.179Z,3.58
2017-08-07T14:18:18.925Z,2.87
2017-08-07T14:20:54.064Z,3.28
2017-08-07T14:23:28.243Z,3.00
2017-08-07T14:26:02.170Z,2.97
2017-08-07T14:28:36.732Z,2.85
2017-08-07T14:31:11.417Z,2.95
2017-08-07T14:33:45.826Z,3.50
2017-08-07T14:36:21.617Z,3.00
2017-08-07T14:38:55.784Z,3.00
2017-08-07T14:41:30.365Z,3.10
2017-08-07T14:44:05.107Z,3.00
2017-08-07T14:46:39.720Z,2.75
2017-08-07T14:49:14.556Z,3.20
2017-08-07T14:51:48.678Z,3.72
2017-08-07T14:54:23.648Z,3.37
2017-08-07T14:56:58.720Z,3.95
2017-08-07T14:59:32.667Z,4.25
2017-08-07T15:02:06.784Z,3.25
2017-08-07T15:04:41.602Z,3.65
2017-08-07T15:07:15.659Z,2.75
2017-08-07T15:09:50.381Z,3.40
2017-08-07T15:12:24.842Z,2.95
2017-08-07T15:14:58.885Z,4.03
2017-08-07T15:17:33.589Z,3.37
2017-08-07T15:20:07.699Z,2.90
2017-08-07T15:22:41.647Z,3.00
2017-08-07T15:25:15.730Z,3.70
2017-08-07T15:27:49.879Z,3.42
2017-08-07T15:30:23.948Z,3.58
2017-08-07T15:32:58.570Z,3.10
2017-08-07T15:35:33.425Z,3.03
2017-08-07T15:38:07.354Z,3.28
2017-08-07T15:40:41.162Z,3.33
2017-08-07T15:43:15.288Z,3.90
2017-08-07T15:45:49.834Z,3.25
2017-08-07T15:48:24.448Z,2.97
2017-08-07T15:50:58.900Z,3.10
2017-08-07T15:53:32.520Z,3.60
2017-08-07T15:56:06.242Z,6.12
2017-08-07T15:58:40.020Z,3.03
2017-08-07T16:01:13.917Z,3.30
2017-08-07T16:03:48.690Z,3.67
2017-08-07T16:06:22.501Z,4.10
2017-08-07T16:08:59.802Z,3.28
2017-08-07T16:11:34.586Z,3.55
2017-08-07T16:14:09.805Z,2.97
2017-08-07T16:16:44.108Z,3.17
2017-08-07T16:19:18.149Z,2.90
2017-08-07T16:21:52.284Z,3.75
2017-08-07T16:24:30.450Z,3.58
2017-08-07T16:27:05.268Z,4.05
2017-08-07T16:29:53.565Z,4.80
2017-08-07T16:32:30.310Z,2.95
2017-08-07T16:35:05.493Z,4.05
2017-08-07T16:37:44.370Z,3.80
2017-08-07T16:40:22.976Z,4.03
2017-08-07T16:43:00.144Z,4.07
2017-08-07T16:45:39.150Z,4.07
2017-08-07T16:48:14.614Z,3.33
2017-08-07T16:50:54.523Z,4.53
2017-08-07T16:53:28.503Z,5.40
2017-08-07T16:56:05.145Z,4.12
2017-08-07T16:58:40.240Z,4.25
2017-08-07T17:01:17.184Z,4.60
2017-08-07T17:03:54.328Z,6.25
2017-08-07T17:06:35.165Z,5.65
2017-08-07T17:14:38.747Z,4.45
2017-08-07T17:17:15.770Z,7.15
2017-08-07T17:19:50.648Z,6.70
2017-08-07T17:22:27.770Z,6.70
2017-08-07T17:25:04.050Z,5.32
2017-08-07T17:27:44.675Z,4.45
2017-08-07T17:30:20.742Z,5.18
2017-08-07T17:32:56.366Z,5.90
2017-08-07T17:35:45.071Z,3.95
2017-08-07T17:38:19.546Z,6.53
2017-08-07T17:40:53.993Z,3.00
2017-08-07T17:43:27.836Z,3.42
2017-08-07T17:46:01.797Z,3.70
2017-08-07T17:48:36.602Z,3.03
2017-08-07T17:51:10.664Z,3.00
2017-08-07T17:53:44.330Z,3.92
2017-08-07T17:56:18.175Z,3.20
2017-08-07T17:58:52.715Z,3.15
2017-08-07T18:01:26.653Z,3.42
2017-08-07T18:04:00.505Z,3.00
2017-08-07T18:06:34.443Z,4.05
2017-08-07T18:09:17.035Z,6.32
2017-08-07T18:14:43.341Z,6.15
2017-08-07T18:17:23.957Z,5.05
2017-08-07T18:19:59.962Z,3.60
2017-08-07T18:22:41.422Z,3.75
2017-08-07T18:25:21.238Z,6.15
2017-08-07T18:27:59.438Z,4.35
2017-08-07T18:30:33.398Z,4.10
2017-08-07T18:33:14.235Z,5.03
2017-08-07T18:38:34.440Z,3.75
2017-08-07T18:41:10.232Z,4.15
2017-08-07T18:43:47.817Z,4.75
2017-08-07T18:46:22.288Z,4.72
2017-08-07T18:48:59.301Z,4.85
2017-08-07T18:51:35.022Z,5.03
2017-08-07T18:54:10.087Z,4.18
2017-08-07T18:56:45.025Z,4.00
2017-08-07T18:59:20.927Z,4.25
2017-08-07T19:01:57.969Z,3.50
2017-08-07T19:04:36.228Z,4.00
2017-08-07T19:07:12.051Z,4.40
2017-08-07T19:09:46.885Z,4.03
2017-08-07T19:12:20.621Z,4.32
2017-08-07T19:15:08.475Z,4.53
2017-08-07T19:18:00.274Z,4.75
2017-08-07T19:20:38.376Z,5.37
2017-08-07T19:23:13.331Z,5.45
2017-08-07T19:25:53.913Z,4.28
2017-08-07T19:28:29.115Z,4.87
2017-08-07T19:31:03.079Z,4.55
2017-08-07T19:33:36.921Z,4.87
2017-08-07T19:36:13.576Z,4.28
2017-08-07T19:38:48.947Z,5.70
2017-08-07T19:41:22.734Z,4.70
2017-08-07T19:44:01.922Z,5.57
2017-08-07T19:46:36.155Z,4.75
2017-08-07T19:49:10.587Z,4.37
2017-08-07T19:51:51.689Z,4.40
2017-08-07T19:54:25.912Z,5.40
2017-08-07T19:57:01.419Z,4.95
2017-08-07T19:59:39.391Z,6.50
2017-08-07T20:02:16.947Z,6.80
2017-08-07T20:04:52.872Z,4.45
2017-08-07T20:07:32.861Z,7.15
2017-08-07T20:10:12.227Z,5.50
2017-08-07T20:12:47.739Z,7.30
2017-08-07T20:15:24.230Z,6.85
2017-08-07T20:18:00.637Z,5.28
2017-08-07T20:20:35.799Z,5.90
2017-08-07T20:23:11.161Z,5.18
2017-08-07T20:25:47.091Z,4.72
2017-08-07T20:28:25.087Z,5.45
2017-08-07T20:31:05.675Z,5.10
2017-08-07T20:33:41.215Z,4.95
2017-08-07T20:36:21.874Z,4.65
2017-08-07T20:38:58.492Z,5.45
2017-08-07T20:41:32.854Z,5.05
2017-08-07T20:44:08.688Z,5.70
2017-08-07T20:46:42.929Z,5.05
2017-08-07T20:49:16.647Z,4.57
2017-08-07T20:51:50.440Z,5.65
2017-08-07T20:54:27.869Z,5.28
2017-08-07T20:57:01.824Z,4.97
2017-08-07T20:59:36.782Z,5.93
2017-08-07T21:02:11.398Z,5.35
2017-08-07T21:04:50.236Z,6.53
2017-08-07T21:07:31.823Z,5.35
2017-08-07T21:10:08.454Z,6.07
2017-08-07T21:12:43.338Z,5.65
2017-08-07T21:15:17.235Z,5.37
2017-08-07T21:17:55.216Z,5.47
2017-08-07T21:20:29.795Z,5.32
2017-08-07T21:23:05.733Z,5.40
2017-08-07T21:25:41.190Z,4.93
2017-08-07T21:28:16.095Z,4.75
2017-08-07T21:30:54.271Z,5.47
2017-08-07T21:33:28.590Z,4.90
2017-08-07T21:36:07.000Z,5.90
2017-08-07T21:38:47.154Z,5.70
2017-08-07T21:41:24.951Z,7.60
2017-08-07T21:43:59.987Z,4.93
2017-08-07T21:49:50.101Z,6.55
2017-08-07T21:52:26.936Z,5.40
2017-08-07T21:55:01.528Z,5.45
2017-08-07T21:57:38.674Z,5.93
2017-08-07T22:00:13.874Z,8.55
2017-08-07T22:02:52.413Z,6.10
2017-08-07T22:05:28.271Z,6.45
2017-08-07T22:08:03.519Z,5.20
2017-08-07T22:10:45.917Z,6.75
2017-08-07T22:13:23.655Z,5.85
2017-08-07T22:16:06.932Z,5.00
2017-08-07T22:18:41.946Z,5.30
2017-08-07T22:21:25.555Z,7.00
2017-08-07T22:24:01.084Z,6.12
2017-08-07T22:26:37.936Z,4.95
2017-08-07T22:29:12.521Z,5.00
2017-08-07T22:31:46.989Z,4.93
2017-08-07T22:34:21.037Z,4.80
2017-08-07T22:36:54.980Z,5.82
2017-08-07T22:39:29.472Z,5.20
2017-08-07T22:42:04.251Z,5.18
2017-08-07T22:44:39.053Z,5.20
2017-08-07T22:49:54.118Z,5.10
2017-08-07T22:52:28.111Z,5.90
2017-08-07T22:55:03.081Z,5.65
2017-08-07T22:57:37.562Z,4.50
2017-08-07T23:00:13.248Z,5.47
2017-08-07T23:02:48.324Z,5.00
2017-08-07T23:05:22.716Z,4.80
2017-08-07T23:07:57.928Z,5.05
2017-08-07T23:10:32.293Z,5.12
2017-08-07T23:13:08.721Z,5.53
2017-08-07T23:15:43.374Z,5.28
2017-08-07T23:18:18.832Z,5.53
2017-08-07T23:20:53.520Z,5.30
2017-08-07T23:23:29.117Z,5.90
2017-08-07T23:26:08.053Z,5.20
2017-08-07T23:28:45.334Z,5.05
2017-08-07T23:31:27.779Z,5.78
2017-08-07T23:34:08.191Z,6.12
2017-08-07T23:36:47.682Z,5.50
2017-08-07T23:39:27.972Z,5.82
2017-08-07T23:42:09.063Z,5.20
2017-08-07T23:44:53.178Z,5.95
2017-08-07T23:47:32.272Z,4.62
2017-08-07T23:50:08.014Z,5.35
2017-08-07T23:52:45.646Z,5.25
2017-08-07T23:55:23.238Z,5.93
2017-08-07T23:58:01.601Z,5.45
